sensor_id;sensor_type;location;lat;lon;timestamp;P1;durP1;ratioP1;P2;durP2;ratioP2
21827;SDS011;11076;47.942;11.804;2023-05-29T00:01:49;5.07;;;3.63;;
21827;SDS011;11076;47.942;11.804;2023-05-29T00:06:51;7.18;;;4.00;;
21827;SDS011;11076;47.942;11.804;2023-05-29T00:11:54;7.05;;;3.78;;
21827;SDS011;11076;47.942;11.804;2023-05-29T00:16:56;8.75;;;4.40;;
21827;SDS011;11076;47.942;11.804;2023-05-29T00:21:59;6.97;;;4.13;;
21827;SDS011;11076;47.942;11.804;2023-05-29T00:27:01;5.57;;;3.38;;
21827;SDS011;11076;47.942;11.804;2023-05-29T00:32:04;7.82;;;3.75;;
21827;SDS011;11076;47.942;11.804;2023-05-29T00:37:07;6.45;;;3.25;;
21827;SDS011;11076;47.942;11.804;2023-05-29T00:42:10;9.18;;;4.05;;
21827;SDS011;11076;47.942;11.804;2023-05-29T00:47:12;9.85;;;3.63;;
21827;SDS011;11076;47.942;11.804;2023-05-29T00:52:15;4.53;;;3.33;;
21827;SDS011;11076;47.942;11.804;2023-05-29T00:57:18;6.47;;;4.05;;
21827;SDS011;11076;47.942;11.804;2023-05-29T01:02:21;6.88;;;3.47;;
21827;SDS011;11076;47.942;11.804;2023-05-29T01:07:24;5.90;;;3.25;;
21827;SDS011;11076;47.942;11.804;2023-05-29T01:28:39;6.63;;;3.38;;
21827;SDS011;11076;47.942;11.804;2023-05-29T01:33:57;6.32;;;3.67;;
21827;SDS011;11076;47.942;11.804;2023-05-29T01:39:02;6.53;;;3.67;;
21827;SDS011;11076;47.942;11.804;2023-05-29T01:44:07;7.53;;;4.40;;
21827;SDS011;11076;47.942;11.804;2023-05-29T01:49:11;5.70;;;3.17;;
21827;SDS011;11076;47.942;11.804;2023-05-29T01:54:14;6.38;;;3.53;;
21827;SDS011;11076;47.942;11.804;2023-05-29T01:59:17;7.40;;;3.23;;
21827;SDS011;11076;47.942;11.804;2023-05-29T02:04:19;7.93;;;3.90;;
21827;SDS011;11076;47.942;11.804;2023-05-29T02:09:22;7.10;;;3.80;;
21827;SDS011;11076;47.942;11.804;2023-05-29T02:14:24;6.50;;;4.18;;
21827;SDS011;11076;47.942;11.804;2023-05-29T02:19:28;5.30;;;3.33;;
21827;SDS011;11076;47.942;11.804;2023-05-29T02:24:31;9.70;;;4.38;;
21827;SDS011;11076;47.942;11.804;2023-05-29T02:29:35;5.47;;;3.47;;
21827;SDS011;11076;47.942;11.804;2023-05-29T02:34:37;9.40;;;3.50;;
21827;SDS011;11076;47.942;11.804;2023-05-29T02:39:40;6.32;;;3.88;;
21827;SDS011;11076;47.942;11.804;2023-05-29T02:44:42;4.67;;;3.53;;
21827;SDS011;11076;47.942;11.804;2023-05-29T02:49:45;5.43;;;3.13;;
21827;SDS011;11076;47.942;11.804;2023-05-29T02:54:47;5.23;;;3.40;;
21827;SDS011;11076;47.942;11.804;2023-05-29T02:59:50;5.97;;;3.40;;
21827;SDS011;11076;47.942;11.804;2023-05-29T03:04:53;8.73;;;3.83;;
21827;SDS011;11076;47.942;11.804;2023-05-29T03:09:55;5.40;;;3.60;;
21827;SDS011;11076;47.942;11.804;2023-05-29T03:15:00;8.33;;;3.33;;
21827;SDS011;11076;47.942;11.804;2023-05-29T03:20:03;7.77;;;3.77;;
21827;SDS011;11076;47.942;11.804;2023-05-29T03:25:12;10.87;;;4.30;;
21827;SDS011;11076;47.942;11.804;2023-05-29T03:30:18;12.47;;;5.13;;
21827;SDS011;11076;47.942;11.804;2023-05-29T03:35:23;10.77;;;6.17;;
21827;SDS011;11076;47.942;11.804;2023-05-29T03:40:26;11.97;;;4.33;;
21827;SDS011;11076;47.942;11.804;2023-05-29T03:45:29;9.40;;;5.07;;
21827;SDS011;11076;47.942;11.804;2023-05-29T03:50:32;12.10;;;4.83;;
21827;SDS011;11076;47.942;11.804;2023-05-29T03:55:35;6.13;;;3.60;;
21827;SDS011;11076;47.942;11.804;2023-05-29T04:00:39;7.22;;;4.00;;
21827;SDS011;11076;47.942;11.804;2023-05-29T04:05:42;8.48;;;4.10;;
21827;SDS011;11076;47.942;11.804;2023-05-29T04:10:44;9.73;;;4.60;;
21827;SDS011;11076;47.942;11.804;2023-05-29T04:15:48;9.65;;;3.88;;
21827;SDS011;11076;47.942;11.804;2023-05-29T04:20:51;6.28;;;4.43;;
21827;SDS011;11076;47.942;11.804;2023-05-29T04:25:55;9.73;;;4.30;;
21827;SDS011;11076;47.942;11.804;2023-05-29T04:31:01;9.48;;;4.68;;
21827;SDS011;11076;47.942;11.804;2023-05-29T04:36:04;5.80;;;4.28;;
21827;SDS011;11076;47.942;11.804;2023-05-29T04:41:08;7.25;;;4.53;;
21827;SDS011;11076;47.942;11.804;2023-05-29T04:46:13;7.95;;;4.45;;
21827;SDS011;11076;47.942;11.804;2023-05-29T04:51:18;9.07;;;5.10;;
21827;SDS011;11076;47.942;11.804;2023-05-29T04:56:24;8.63;;;4.32;;
21827;SDS011;11076;47.942;11.804;2023-05-29T05:01:26;6.03;;;4.47;;
21827;SDS011;11076;47.942;11.804;2023-05-29T05:06:29;7.45;;;5.07;;
21827;SDS011;11076;47.942;11.804;2023-05-29T05:11:32;7.47;;;4.88;;
21827;SDS011;11076;47.942;11.804;2023-05-29T05:16:35;9.73;;;4.82;;
21827;SDS011;11076;47.942;11.804;2023-05-29T05:21:38;7.65;;;4.38;;
21827;SDS011;11076;47.942;11.804;2023-05-29T05:26:42;11.27;;;4.63;;
21827;SDS011;11076;47.942;11.804;2023-05-29T05:31:44;7.60;;;4.78;;
21827;SDS011;11076;47.942;11.804;2023-05-29T05:36:47;6.68;;;4.65;;
21827;SDS011;11076;47.942;11.804;2023-05-29T05:41:49;7.57;;;5.70;;
21827;SDS011;11076;47.942;11.804;2023-05-29T05:47:07;8.70;;;5.57;;
21827;SDS011;11076;47.942;11.804;2023-05-29T05:52:10;10.43;;;5.32;;
21827;SDS011;11076;47.942;11.804;2023-05-29T05:57:14;9.38;;;6.07;;
21827;SDS011;11076;47.942;11.804;2023-05-29T06:02:17;10.95;;;5.70;;
21827;SDS011;11076;47.942;11.804;2023-05-29T06:07:19;9.80;;;5.50;;
21827;SDS011;11076;47.942;11.804;2023-05-29T06:12:22;8.48;;;5.10;;
21827;SDS011;11076;47.942;11.804;2023-05-29T06:17:34;7.53;;;4.80;;
21827;SDS011;11076;47.942;11.804;2023-05-29T06:22:38;9.98;;;4.82;;
21827;SDS011;11076;47.942;11.804;2023-05-29T06:27:40;9.30;;;4.65;;
21827;SDS011;11076;47.942;11.804;2023-05-29T06:32:44;6.05;;;4.68;;
21827;SDS011;11076;47.942;11.804;2023-05-29T06:37:46;7.05;;;4.88;;
21827;SDS011;11076;47.942;11.804;2023-05-29T06:42:49;9.73;;;5.00;;
21827;SDS011;11076;47.942;11.804;2023-05-29T06:47:52;8.45;;;5.00;;
21827;SDS011;11076;47.942;11.804;2023-05-29T06:52:54;8.40;;;4.97;;
21827;SDS011;11076;47.942;11.804;2023-05-29T06:58:01;10.77;;;5.63;;
21827;SDS011;11076;47.942;11.804;2023-05-29T07:03:03;9.48;;;5.03;;
21827;SDS011;11076;47.942;11.804;2023-05-29T07:08:06;7.95;;;5.50;;
21827;SDS011;11076;47.942;11.804;2023-05-29T07:13:09;8.43;;;4.85;;
21827;SDS011;11076;47.942;11.804;2023-05-29T07:18:11;11.05;;;5.20;;
21827;SDS011;11076;47.942;11.804;2023-05-29T07:23:14;7.35;;;5.07;;
21827;SDS011;11076;47.942;11.804;2023-05-29T07:28:16;8.82;;;4.68;;
21827;SDS011;11076;47.942;11.804;2023-05-29T07:33:23;8.63;;;4.82;;
21827;SDS011;11076;47.942;11.804;2023-05-29T07:38:28;5.15;;;4.30;;
21827;SDS011;11076;47.942;11.804;2023-05-29T07:43:31;6.80;;;4.93;;
21827;SDS011;11076;47.942;11.804;2023-05-29T07:48:38;5.82;;;4.35;;
21827;SDS011;11076;47.942;11.804;2023-05-29T07:53:43;6.90;;;4.55;;
21827;SDS011;11076;47.942;11.804;2023-05-29T07:58:47;11.90;;;5.00;;
21827;SDS011;11076;47.942;11.804;2023-05-29T08:03:50;10.55;;;5.50;;
21827;SDS011;11076;47.942;11.804;2023-05-29T08:09:02;10.52;;;5.50;;
21827;SDS011;11076;47.942;11.804;2023-05-29T08:14:05;8.00;;;4.93;;
21827;SDS011;11076;47.942;11.804;2023-05-29T08:19:08;6.80;;;4.40;;
21827;SDS011;11076;47.942;11.804;2023-05-29T08:24:10;9.52;;;4.88;;
21827;SDS011;11076;47.942;11.804;2023-05-29T08:29:12;9.18;;;5.03;;
21827;SDS011;11076;47.942;11.804;2023-05-29T08:34:16;6.95;;;4.70;;
21827;SDS011;11076;47.942;11.804;2023-05-29T08:39:18;13.88;;;4.68;;
21827;SDS011;11076;47.942;11.804;2023-05-29T08:44:21;6.10;;;4.50;;
21827;SDS011;11076;47.942;11.804;2023-05-29T08:49:24;8.85;;;4.90;;
21827;SDS011;11076;47.942;11.804;2023-05-29T08:54:31;9.90;;;5.13;;
21827;SDS011;11076;47.942;11.804;2023-05-29T08:59:34;12.77;;;5.07;;
21827;SDS011;11076;47.942;11.804;2023-05-29T09:04:40;9.07;;;4.82;;
21827;SDS011;11076;47.942;11.804;2023-05-29T09:09:46;8.40;;;4.60;;
21827;SDS011;11076;47.942;11.804;2023-05-29T09:14:49;8.82;;;5.03;;
21827;SDS011;11076;47.942;11.804;2023-05-29T09:19:52;11.10;;;4.60;;
21827;SDS011;11076;47.942;11.804;2023-05-29T09:24:54;8.45;;;4.88;;
21827;SDS011;11076;47.942;11.804;2023-05-29T09:36:02;7.22;;;4.97;;
21827;SDS011;11076;47.942;11.804;2023-05-29T09:41:04;13.20;;;6.78;;
21827;SDS011;11076;47.942;11.804;2023-05-29T09:46:07;9.85;;;4.50;;
21827;SDS011;11076;47.942;11.804;2023-05-29T09:51:22;13.90;;;5.57;;
21827;SDS011;11076;47.942;11.804;2023-05-29T09:56:26;8.07;;;4.78;;
21827;SDS011;11076;47.942;11.804;2023-05-29T10:01:30;9.63;;;4.63;;
21827;SDS011;11076;47.942;11.804;2023-05-29T10:06:34;8.40;;;5.00;;
21827;SDS011;11076;47.942;11.804;2023-05-29T10:11:40;8.23;;;5.07;;
21827;SDS011;11076;47.942;11.804;2023-05-29T10:16:46;7.88;;;4.63;;
21827;SDS011;11076;47.942;11.804;2023-05-29T10:21:49;9.50;;;4.88;;
21827;SDS011;11076;47.942;11.804;2023-05-29T10:26:54;10.52;;;4.93;;
21827;SDS011;11076;47.942;11.804;2023-05-29T10:32:12;7.88;;;4.88;;
21827;SDS011;11076;47.942;11.804;2023-05-29T10:47:41;8.57;;;4.75;;
21827;SDS011;11076;47.942;11.804;2023-05-29T10:52:46;8.15;;;5.32;;
21827;SDS011;11076;47.942;11.804;2023-05-29T10:57:49;8.23;;;4.93;;
21827;SDS011;11076;47.942;11.804;2023-05-29T11:02:52;9.23;;;4.70;;
21827;SDS011;11076;47.942;11.804;2023-05-29T11:07:58;7.65;;;5.00;;
21827;SDS011;11076;47.942;11.804;2023-05-29T11:13:04;7.57;;;4.72;;
21827;SDS011;11076;47.942;11.804;2023-05-29T11:18:09;9.10;;;4.63;;
21827;SDS011;11076;47.942;11.804;2023-05-29T11:23:15;6.70;;;4.10;;
21827;SDS011;11076;47.942;11.804;2023-05-29T11:28:19;7.95;;;4.88;;
21827;SDS011;11076;47.942;11.804;2023-05-29T11:33:23;8.00;;;4.70;;
21827;SDS011;11076;47.942;11.804;2023-05-29T11:38:29;6.60;;;4.55;;
21827;SDS011;11076;47.942;11.804;2023-05-29T11:43:33;8.30;;;4.80;;
21827;SDS011;11076;47.942;11.804;2023-05-29T11:48:44;7.07;;;4.68;;
21827;SDS011;11076;47.942;11.804;2023-05-29T11:53:48;7.63;;;4.60;;
21827;SDS011;11076;47.942;11.804;2023-05-29T11:58:51;9.88;;;4.57;;
21827;SDS011;11076;47.942;11.804;2023-05-29T12:03:57;11.10;;;4.68;;
21827;SDS011;11076;47.942;11.804;2023-05-29T12:08:59;10.07;;;4.45;;
21827;SDS011;11076;47.942;11.804;2023-05-29T12:14:03;8.52;;;5.13;;
21827;SDS011;11076;47.942;11.804;2023-05-29T12:19:05;9.15;;;5.68;;
21827;SDS011;11076;47.942;11.804;2023-05-29T12:24:08;6.45;;;4.32;;
21827;SDS011;11076;47.942;11.804;2023-05-29T12:29:14;7.35;;;4.28;;
21827;SDS011;11076;47.942;11.804;2023-05-29T12:34:17;4.72;;;4.28;;
21827;SDS011;11076;47.942;11.804;2023-05-29T12:39:21;6.50;;;4.45;;
21827;SDS011;11076;47.942;11.804;2023-05-29T12:44:24;7.32;;;3.90;;
21827;SDS011;11076;47.942;11.804;2023-05-29T12:49:26;8.65;;;4.53;;
21827;SDS011;11076;47.942;11.804;2023-05-29T12:54:31;9.80;;;4.03;;
21827;SDS011;11076;47.942;11.804;2023-05-29T12:59:33;4.72;;;3.67;;
21827;SDS011;11076;47.942;11.804;2023-05-29T13:04:36;10.13;;;3.47;;
21827;SDS011;11076;47.942;11.804;2023-05-29T13:09:39;7.45;;;4.47;;
21827;SDS011;11076;47.942;11.804;2023-05-29T13:14:41;8.40;;;4.13;;
21827;SDS011;11076;47.942;11.804;2023-05-29T13:19:44;10.07;;;3.90;;
21827;SDS011;11076;47.942;11.804;2023-05-29T13:24:46;6.95;;;2.92;;
21827;SDS011;11076;47.942;11.804;2023-05-29T13:29:49;6.22;;;4.05;;
21827;SDS011;11076;47.942;11.804;2023-05-29T13:34:52;5.75;;;4.10;;
21827;SDS011;11076;47.942;11.804;2023-05-29T13:39:54;6.05;;;4.05;;
21827;SDS011;11076;47.942;11.804;2023-05-29T13:44:57;5.47;;;3.63;;
21827;SDS011;11076;47.942;11.804;2023-05-29T13:49:59;6.22;;;3.95;;
21827;SDS011;11076;47.942;11.804;2023-05-29T13:55:02;5.95;;;3.97;;
21827;SDS011;11076;47.942;11.804;2023-05-29T14:00:10;5.35;;;3.45;;
21827;SDS011;11076;47.942;11.804;2023-05-29T14:05:13;4.93;;;3.30;;
21827;SDS011;11076;47.942;11.804;2023-05-29T14:10:16;5.15;;;3.70;;
21827;SDS011;11076;47.942;11.804;2023-05-29T14:15:18;6.20;;;3.53;;
21827;SDS011;11076;47.942;11.804;2023-05-29T14:20:21;4.28;;;3.38;;
21827;SDS011;11076;47.942;11.804;2023-05-29T14:25:24;7.88;;;3.65;;
21827;SDS011;11076;47.942;11.804;2023-05-29T14:30:26;6.75;;;3.95;;
21827;SDS011;11076;47.942;11.804;2023-05-29T14:35:29;4.43;;;3.33;;
21827;SDS011;11076;47.942;11.804;2023-05-29T14:40:32;4.82;;;3.08;;
21827;SDS011;11076;47.942;11.804;2023-05-29T14:45:36;6.40;;;3.70;;
21827;SDS011;11076;47.942;11.804;2023-05-29T14:50:38;4.47;;;3.80;;
21827;SDS011;11076;47.942;11.804;2023-05-29T14:55:41;7.50;;;3.42;;
21827;SDS011;11076;47.942;11.804;2023-05-29T15:00:43;4.00;;;3.30;;
21827;SDS011;11076;47.942;11.804;2023-05-29T15:05:46;10.13;;;3.85;;
21827;SDS011;11076;47.942;11.804;2023-05-29T15:10:48;3.55;;;3.08;;
21827;SDS011;11076;47.942;11.804;2023-05-29T15:15:51;5.05;;;3.65;;
21827;SDS011;11076;47.942;11.804;2023-05-29T15:20:53;4.65;;;3.38;;
21827;SDS011;11076;47.942;11.804;2023-05-29T15:25:56;6.00;;;3.90;;
21827;SDS011;11076;47.942;11.804;2023-05-29T15:30:59;6.50;;;4.30;;
21827;SDS011;11076;47.942;11.804;2023-05-29T15:36:01;6.15;;;4.03;;
21827;SDS011;11076;47.942;11.804;2023-05-29T15:41:04;7.40;;;3.13;;
21827;SDS011;11076;47.942;11.804;2023-05-29T15:46:06;8.32;;;3.53;;
21827;SDS011;11076;47.942;11.804;2023-05-29T15:51:10;6.70;;;4.03;;
21827;SDS011;11076;47.942;11.804;2023-05-29T15:56:12;6.90;;;3.90;;
21827;SDS011;11076;47.942;11.804;2023-05-29T16:01:15;5.88;;;3.60;;
21827;SDS011;11076;47.942;11.804;2023-05-29T16:06:19;9.60;;;3.50;;
21827;SDS011;11076;47.942;11.804;2023-05-29T17:27:51;11.45;;;3.92;;
21827;SDS011;11076;47.942;11.804;2023-05-29T17:32:55;4.65;;;3.50;;
21827;SDS011;11076;47.942;11.804;2023-05-29T17:37:58;8.25;;;3.50;;
21827;SDS011;11076;47.942;11.804;2023-05-29T17:43:00;6.55;;;3.78;;
21827;SDS011;11076;47.942;11.804;2023-05-29T17:48:05;5.05;;;3.30;;
21827;SDS011;11076;47.942;11.804;2023-05-29T17:53:08;7.88;;;3.50;;
21827;SDS011;11076;47.942;11.804;2023-05-29T17:58:10;6.22;;;3.42;;
21827;SDS011;11076;47.942;11.804;2023-05-29T18:03:13;6.72;;;4.32;;
21827;SDS011;11076;47.942;11.804;2023-05-29T18:08:17;8.48;;;4.53;;
21827;SDS011;11076;47.942;11.804;2023-05-29T18:13:19;4.88;;;3.33;;
21827;SDS011;11076;47.942;11.804;2023-05-29T18:18:22;10.70;;;3.97;;
21827;SDS011;11076;47.942;11.804;2023-05-29T18:23:24;7.55;;;3.88;;
21827;SDS011;11076;47.942;11.804;2023-05-29T18:28:27;4.88;;;3.40;;
21827;SDS011;11076;47.942;11.804;2023-05-29T18:33:29;7.28;;;3.70;;
21827;SDS011;11076;47.942;11.804;2023-05-29T18:38:32;4.57;;;3.50;;
21827;SDS011;11076;47.942;11.804;2023-05-29T18:43:34;6.35;;;3.97;;
21827;SDS011;11076;47.942;11.804;2023-05-29T18:48:37;5.68;;;3.40;;
21827;SDS011;11076;47.942;11.804;2023-05-29T18:53:40;5.75;;;3.63;;
21827;SDS011;11076;47.942;11.804;2023-05-29T18:58:42;5.13;;;3.47;;
21827;SDS011;11076;47.942;11.804;2023-05-29T19:03:44;6.10;;;3.53;;
21827;SDS011;11076;47.942;11.804;2023-05-29T19:08:47;5.63;;;3.50;;
21827;SDS011;11076;47.942;11.804;2023-05-29T19:13:50;5.68;;;3.33;;
21827;SDS011;11076;47.942;11.804;2023-05-29T19:18:52;7.97;;;3.15;;
21827;SDS011;11076;47.942;11.804;2023-05-29T19:23:55;7.28;;;3.58;;
21827;SDS011;11076;47.942;11.804;2023-05-29T19:28:58;8.45;;;4.10;;
21827;SDS011;11076;47.942;11.804;2023-05-29T19:34:00;7.70;;;3.83;;
21827;SDS011;11076;47.942;11.804;2023-05-29T19:39:03;12.73;;;4.50;;
21827;SDS011;11076;47.942;11.804;2023-05-29T19:44:06;13.18;;;3.70;;
21827;SDS011;11076;47.942;11.804;2023-05-29T19:49:10;16.10;;;4.40;;
21827;SDS011;11076;47.942;11.804;2023-05-29T19:54:12;13.35;;;4.70;;
21827;SDS011;11076;47.942;11.804;2023-05-29T19:59:15;8.07;;;4.03;;
21827;SDS011;11076;47.942;11.804;2023-05-29T20:04:18;6.38;;;3.53;;
21827;SDS011;11076;47.942;11.804;2023-05-29T20:09:21;6.68;;;3.70;;
21827;SDS011;11076;47.942;11.804;2023-05-29T20:14:25;7.32;;;3.78;;
21827;SDS011;11076;47.942;11.804;2023-05-29T20:19:28;5.78;;;3.70;;
21827;SDS011;11076;47.942;11.804;2023-05-29T20:24:30;6.95;;;3.85;;
21827;SDS011;11076;47.942;11.804;2023-05-29T20:29:33;4.90;;;3.10;;
21827;SDS011;11076;47.942;11.804;2023-05-29T20:34:37;9.93;;;3.20;;
21827;SDS011;11076;47.942;11.804;2023-05-29T20:39:40;6.50;;;3.67;;
21827;SDS011;11076;47.942;11.804;2023-05-29T20:44:42;6.10;;;3.42;;
21827;SDS011;11076;47.942;11.804;2023-05-29T20:49:45;7.05;;;3.95;;
21827;SDS011;11076;47.942;11.804;2023-05-29T20:54:48;6.15;;;3.80;;
21827;SDS011;11076;47.942;11.804;2023-05-29T20:59:50;5.75;;;3.63;;
21827;SDS011;11076;47.942;11.804;2023-05-29T21:04:53;6.00;;;3.85;;
21827;SDS011;11076;47.942;11.804;2023-05-29T21:09:55;6.68;;;3.75;;
21827;SDS011;11076;47.942;11.804;2023-05-29T21:14:58;7.20;;;4.00;;
21827;SDS011;11076;47.942;11.804;2023-05-29T21:20:01;6.00;;;4.13;;
21827;SDS011;11076;47.942;11.804;2023-05-29T21:25:06;4.63;;;3.58;;
21827;SDS011;11076;47.942;11.804;2023-05-29T21:30:09;5.60;;;3.47;;
21827;SDS011;11076;47.942;11.804;2023-05-29T21:35:12;6.68;;;3.70;;
21827;SDS011;11076;47.942;11.804;2023-05-29T21:40:15;6.85;;;4.60;;
21827;SDS011;11076;47.942;11.804;2023-05-29T21:45:18;5.03;;;3.97;;
21827;SDS011;11076;47.942;11.804;2023-05-29T21:50:21;5.60;;;3.50;;
21827;SDS011;11076;47.942;11.804;2023-05-29T21:55:24;7.25;;;3.95;;
21827;SDS011;11076;47.942;11.804;2023-05-29T22:00:27;9.38;;;3.75;;
21827;SDS011;11076;47.942;11.804;2023-05-29T22:05:32;7.95;;;4.93;;
21827;SDS011;11076;47.942;11.804;2023-05-29T22:10:35;6.00;;;3.80;;
21827;SDS011;11076;47.942;11.804;2023-05-29T22:15:37;8.50;;;4.50;;
21827;SDS011;11076;47.942;11.804;2023-05-29T22:20:40;9.02;;;4.60;;
21827;SDS011;11076;47.942;11.804;2023-05-29T22:25:43;5.75;;;4.07;;
21827;SDS011;11076;47.942;11.804;2023-05-29T22:30:46;6.95;;;4.40;;
21827;SDS011;11076;47.942;11.804;2023-05-29T22:35:49;6.40;;;4.20;;
21827;SDS011;11076;47.942;11.804;2023-05-29T22:40:56;6.40;;;4.07;;
21827;SDS011;11076;47.942;11.804;2023-05-29T22:45:58;12.20;;;4.50;;
21827;SDS011;11076;47.942;11.804;2023-05-29T22:51:01;9.15;;;4.28;;
21827;SDS011;11076;47.942;11.804;2023-05-29T22:56:06;6.75;;;3.95;;
21827;SDS011;11076;47.942;11.804;2023-05-29T23:01:09;6.70;;;3.90;;
21827;SDS011;11076;47.942;11.804;2023-05-29T23:06:11;6.88;;;4.45;;
21827;SDS011;11076;47.942;11.804;2023-05-29T23:11:14;5.57;;;3.88;;
21827;SDS011;11076;47.942;11.804;2023-05-29T23:16:20;9.00;;;5.20;;
21827;SDS011;11076;47.942;11.804;2023-05-29T23:21:23;7.20;;;3.67;;
21827;SDS011;11076;47.942;11.804;2023-05-29T23:26:25;6.43;;;4.00;;
21827;SDS011;11076;47.942;11.804;2023-05-29T23:31:28;6.80;;;4.53;;
21827;SDS011;11076;47.942;11.804;2023-05-29T23:36:30;9.18;;;3.90;;
21827;SDS011;11076;47.942;11.804;2023-05-29T23:41:33;6.53;;;4.18;;
21827;SDS011;11076;47.942;11.804;2023-05-29T23:46:36;8.10;;;4.68;;
21827;SDS011;11076;47.942;11.804;2023-05-29T23:51:39;7.15;;;4.10;;
21827;SDS011;11076;47.942;11.804;2023-05-29T23:56:42;7.35;;;4.13;;
